Latest Weather Observations for Point Fawcett

IDD60801

Issued at 3:35 pm CST Monday 28 July 2014 (issued every 30 minutes, with the page automatically refreshed every 10 minutes)

About weather observations | Map of weather stations | Latest weather observations for NT | Other Formats
Station Details ID: 200731 Name: POINT FAWCETT Lat: -11.76 Lon: 130.03 Height: 6.5 m
Data from the previous 72 hours. | See also: Recent months at Point Fawcett
Date/Time
CST
Temp
°C
App
Temp
°C
Dew
Point
Rel
Hum
%
Delta-T
°C
Wind Press
QNH
hPa
Press
MSL
hPa
Rain
since 9 am
mm
Dir
 
Spd
km/h
Gust
km/h
Spd
kts
Gust
kts
28/03:30pm 29.2 28.2 14.6 41 8.8 ESE 13 26 7 14 1012.5 - -
28/03:00pm 29.8 27.6 14.4 39 9.3 ESE 19 28 10 15 1012.7 1012.7 -
28/02:30pm 29.7 28.4 15.8 43 8.6 ESE 17 32 9 17 1013.2 - -
28/02:00pm 30.1 28.9 16.1 42 8.7 ESE 17 32 9 17 1013.7 - -
28/01:30pm 29.9 28.3 16.0 43 8.6 ESE 19 35 10 19 1014.3 - -
28/01:00pm 30.0 28.4 16.1 43 8.6 ESE 19 33 10 18 1014.7 - -
28/12:30pm 29.5 27.7 15.6 43 8.6 ESE 19 32 10 17 1015.1 - -
28/12:00pm 29.3 28.3 16.5 46 8.0 ESE 17 32 9 17 1015.6 1015.6 -
28/11:30am 29.4 29.4 17.2 47 7.7 ESE 13 26 7 14 1015.9 - -
28/11:00am 29.1 29.3 18.5 52 6.8 ESE 15 28 8 15 1016.2 - -
28/10:30am 28.9 29.0 18.4 53 6.7 SE 15 24 8 13 1016.4 - -
28/10:00am 28.2 30.1 19.7 60 5.5 SE 9 19 5 10 1016.6 - -
28/09:30am 27.1 29.6 20.2 66 4.5 ESE 7 11 4 6 1016.6 - -
28/09:00am 25.1 27.3 20.4 75 3.1 E 9 11 5 6 1016.4 1016.4 -
28/08:30am 22.6 25.9 21.8 95 0.5 E 7 11 4 6 1016.2 - -
28/08:00am 20.5 22.8 19.8 96 0.4 E 7 9 4 5 1016.0 - -
28/07:30am 18.7 20.1 17.9 95 0.5 E 7 9 4 5 1015.7 - -
28/07:00am 18.3 19.6 17.5 95 0.5 E 7 9 4 5 1015.4 - -
28/06:30am 18.5 19.9 17.7 95 0.5 E 7 9 4 5 1015.3 - -
28/06:00am 18.7 20.1 17.7 94 0.6 E 7 9 4 5 1015.1 1015.1 -
28/05:30am 18.9 20.3 17.9 94 0.6 E 7 9 4 5 1014.9 - -
28/05:00am 19.0 20.5 18.0 94 0.6 E 7 11 4 6 1014.9 - -
28/04:30am 19.1 20.6 18.1 94 0.6 E 7 9 4 5 1014.7 - -
28/04:00am 19.1 20.6 18.1 94 0.6 ESE 7 9 4 5 1014.6 - -
28/03:30am 19.2 20.7 18.0 93 0.7 E 7 9 4 5 1014.6 - -
28/03:00am 19.1 20.5 17.9 93 0.7 ESE 7 9 4 5 1014.7 1014.7 -
28/02:30am 19.2 20.7 18.0 93 0.7 ESE 7 9 4 5 1014.8 - -
28/02:00am 19.4 20.9 18.1 92 0.8 SE 7 7 4 4 1014.9 - -
28/01:30am 19.6 21.4 18.3 92 0.8 SE 6 7 3 4 1015.3 - -
28/01:00am 20.0 21.8 18.7 92 0.8 SSE 7 9 4 5 1015.6 - -
28/12:30am 20.1 21.9 18.8 92 0.8 SE 7 9 4 5 1015.7 - -
28/12:00am 19.8 21.4 18.3 91 0.9 SE 7 9 4 5 1015.8 1015.8 -
 
Date/Time
CST
Temp
°C
App
Temp
°C
Dew
Point
Rel
Hum
%
Delta-T
°C
Wind Press
QNH
hPa
Press
MSL
hPa
Rain
since 9 am
mm
Dir
 
Spd
km/h
Gust
km/h
Spd
kts
Gust
kts
27/11:30pm 19.8 21.3 18.1 90 1.1 ESE 7 7 4 4 1015.8 - -
27/11:00pm 20.2 21.8 18.3 89 1.2 SSE 7 9 4 5 1015.9 - -
27/10:30pm 20.6 22.3 18.5 88 1.3 E 7 9 4 5 1015.6 - -
27/10:00pm 20.7 22.2 18.1 85 1.6 E 7 9 4 5 1015.4 - -
27/09:30pm 21.6 23.2 18.2 81 2.1 E 7 9 4 5 1015.2 - -
27/09:00pm 23.7 25.7 20.0 80 2.4 ENE 9 13 5 7 1015.0 1015.0 -
27/08:30pm 23.5 25.7 20.4 83 2.0 NE 9 15 5 8 1014.7 - -
27/08:00pm 23.2 25.3 18.9 77 2.7 ENE 6 7 3 4 1014.4 - -
27/07:30pm 25.6 28.3 20.6 74 3.3 N 7 11 4 6 1014.0 - -
27/07:00pm 26.5 28.2 21.0 72 3.6 N 13 17 7 9 1013.5 - -
27/06:30pm 27.4 29.5 21.0 68 4.2 N 11 15 6 8 1013.3 - -
27/06:00pm 29.2 28.5 16.4 46 8.0 ENE 15 26 8 14 1013.1 1013.1 -
27/05:30pm 29.8 29.8 17.3 47 7.9 E 13 20 7 11 1012.8 - -
27/05:00pm 30.0 30.0 17.1 46 8.1 E 13 20 7 11 1012.6 - -
27/04:30pm 29.7 28.7 16.5 45 8.2 ESE 17 30 9 16 1012.5 - -
27/04:00pm 30.4 29.1 16.8 44 8.6 ESE 19 35 10 19 1012.5 - -
27/03:30pm 30.8 30.0 17.1 43 8.7 ESE 17 32 9 17 1012.8 - -
27/03:00pm 30.4 29.3 16.4 43 8.8 E 17 30 9 16 1013.0 1013.0 -
27/02:30pm 30.2 29.5 17.3 46 8.2 ESE 17 30 9 16 1013.3 - -
27/02:00pm 29.5 28.6 17.7 49 7.5 ESE 19 33 10 18 1013.7 - -
27/01:30pm 29.7 29.4 18.2 50 7.4 ESE 17 32 9 17 1014.2 - -
27/01:00pm 29.8 29.9 18.3 50 7.4 ESE 15 26 8 14 1014.7 - -
27/12:30pm 29.9 29.8 18.7 51 7.2 SE 17 30 9 16 1015.2 - -
27/12:00pm 29.5 29.5 18.0 50 7.3 SE 15 26 8 14 1015.8 1015.8 -
27/11:30am 29.6 29.1 18.7 52 7.0 ESE 19 28 10 15 1016.1 - -
27/11:00am 29.4 30.0 19.4 55 6.5 ESE 15 30 8 16 1016.3 - -
27/10:30am 28.5 28.5 18.9 56 6.2 E 17 26 9 14 1016.9 - -
27/10:00am 27.9 29.0 19.7 61 5.3 ESE 13 24 7 13 1017.2 - -
27/09:30am 26.4 29.0 21.2 73 3.4 ESE 9 19 5 10 1017.1 - -
27/09:00am 25.1 28.8 22.6 86 1.7 E 7 17 4 9 1017.2 1017.2 -
27/08:30am 23.0 26.7 22.2 95 0.5 E 6 9 3 5 1016.8 - -
27/08:00am 19.7 21.6 18.9 95 0.5 E 7 9 4 5 1016.7 - -
27/07:30am 18.1 19.2 17.1 94 0.6 E 7 9 4 5 1016.4 - -
27/07:00am 17.9 18.9 16.9 94 0.6 E 7 9 4 5 1016.3 - -
27/06:30am 18.0 19.0 16.9 93 0.7 E 7 7 4 4 1016.2 - -
27/06:00am 18.3 19.4 17.1 93 0.7 E 7 9 4 5 1015.9 1015.9 -
27/05:30am 18.6 19.8 17.3 92 0.8 E 7 9 4 5 1015.8 - -
27/05:00am 18.7 20.1 17.4 92 0.8 E 6 7 3 4 1015.7 - -
27/04:30am 19.4 20.9 18.1 92 0.8 E 7 9 4 5 1015.8 - -
27/04:00am 20.0 22.0 18.7 92 0.8 E 6 7 3 4 1015.8 - -
27/03:30am 20.7 22.9 19.5 93 0.8 SE 7 9 4 5 1016.0 - -
27/03:00am 21.1 23.4 19.9 93 0.8 E 7 13 4 7 1016.0 1016.0 -
27/02:30am 20.2 22.1 19.0 93 0.8 E 7 11 4 6 1016.1 - -
27/02:00am 19.7 21.0 18.4 92 0.8 ESE 9 13 5 7 1016.4 - -
27/01:30am 19.8 21.3 18.1 90 1.1 SE 7 7 4 4 1016.6 - -
27/01:00am 20.3 22.1 18.4 89 1.2 ESE 6 7 3 4 1016.6 - -
27/12:30am 21.7 24.1 20.0 90 1.1 E 7 9 4 5 1016.7 - -
27/12:00am 23.1 25.9 21.5 91 1.1 ENE 9 13 5 7 1016.7 1016.7 -
 
Date/Time
CST
Temp
°C
App
Temp
°C
Dew
Point
Rel
Hum
%
Delta-T
°C
Wind Press
QNH
hPa
Press
MSL
hPa
Rain
since 9 am
mm
Dir
 
Spd
km/h
Gust
km/h
Spd
kts
Gust
kts
26/11:30pm 22.3 24.5 20.4 89 1.2 ENE 9 13 5 7 1016.7 - -
26/11:00pm 22.8 25.4 20.5 87 1.5 ENE 7 11 4 6 1016.7 - -
26/10:30pm 23.4 25.9 20.3 83 2.0 NE 7 9 4 5 1016.7 - -
26/10:00pm 24.6 27.1 21.1 81 2.3 NE 9 13 5 7 1016.7 - -
26/09:30pm 25.6 27.6 22.3 82 2.2 NNW 15 19 8 10 1016.5 - -
26/09:00pm 25.7 28.1 22.2 81 2.3 NW 13 17 7 9 1016.5 1016.5 -
26/08:30pm 25.6 28.3 22.1 81 2.3 N 11 17 6 9 1016.2 - -
26/08:00pm 25.6 27.5 22.1 81 2.3 N 15 20 8 11 1015.9 - -
26/07:30pm 25.7 28.3 22.6 83 2.1 N 13 20 7 11 1015.5 - -
26/07:00pm 23.4 25.4 16.9 67 4.0 E 2 7 1 4 1015.1 - -
26/06:30pm 26.0 28.4 17.1 58 5.5 CALM 0 0 0 0 1014.7 - -
26/06:00pm 28.9 30.1 16.8 48 7.6 E 6 11 3 6 1014.4 1014.4 -
26/05:30pm 29.6 29.7 16.4 45 8.2 E 11 19 6 10 1014.1 - -
26/05:00pm 30.3 31.4 17.0 44 8.4 ESE 7 13 4 7 1013.9 - -
26/04:30pm 30.1 29.7 16.1 42 8.7 ESE 13 19 7 10 1013.9 - -
26/04:00pm 30.3 29.3 15.6 41 9.1 E 15 22 8 12 1013.8 - -
26/03:30pm 30.1 29.2 15.8 42 8.9 SE 15 24 8 13 1013.8 - -
26/03:00pm 30.5 28.9 16.1 41 9.0 SE 19 30 10 16 1013.9 1013.9 -
26/02:30pm 30.4 29.6 17.1 44 8.4 ESE 17 30 9 16 1014.1 - -
26/02:00pm 30.4 31.0 18.5 49 7.7 ESE 13 30 7 16 1014.6 - -
26/01:30pm 31.2 31.6 18.2 46 8.4 ESE 13 20 7 11 1014.9 - -
26/01:00pm 30.9 31.3 18.9 48 7.8 ESE 15 22 8 12 1015.4 - -
26/12:30pm 30.0 30.1 19.1 52 7.1 E 17 24 9 13 1015.9 - -
26/12:00pm 29.5 30.0 19.2 54 6.7 SE 15 28 8 15 1016.1 1016.1 -
26/11:30am 29.5 31.0 19.8 56 6.4 ESE 11 20 6 11 1016.6 - -
26/11:00am 28.7 29.1 19.9 59 5.8 E 17 24 9 13 1016.9 - -
26/10:30am 28.5 30.6 21.0 64 5.0 E 11 17 6 9 1017.2 - -
26/10:00am 27.5 29.7 21.1 68 4.2 E 11 20 6 11 1017.4 - -
26/09:30am 26.5 28.5 20.8 71 3.8 E 11 19 6 10 1017.6 - -
26/09:00am 25.5 28.3 21.6 79 2.6 E 9 17 5 9 1017.5 1017.5 -
26/08:30am 23.7 27.2 22.1 91 1.1 E 7 11 4 6 1017.1 - -
26/08:00am 22.2 24.8 21.2 94 0.7 E 9 13 5 7 1016.7 - -
26/07:30am 21.2 23.4 20.4 95 0.5 E 9 13 5 7 1016.4 - -
26/07:00am 20.6 22.9 19.8 95 0.5 E 7 11 4 6 1016.3 - -
26/06:30am 20.3 22.5 19.5 95 0.5 ENE 7 9 4 5 1016.0 - -
26/06:00am 21.1 23.6 20.3 95 0.5 ESE 7 9 4 5 1016.1 1016.1 -
26/05:30am 21.0 22.7 20.2 95 0.5 E 11 15 6 8 1016.0 - -
26/05:00am 20.7 22.7 19.9 95 0.5 E 9 11 5 6 1015.8 - -
26/04:30am 21.0 23.1 20.2 95 0.5 E 9 11 5 6 1015.6 - -
26/04:00am 21.0 23.1 20.2 95 0.5 E 9 13 5 7 1015.6 - -
26/03:30am 20.2 21.9 19.4 95 0.5 E 9 11 5 6 1015.6 - -
26/03:00am 18.9 20.0 17.9 94 0.6 ESE 9 11 5 6 1015.7 1015.7 -
26/02:30am 18.9 20.3 17.9 94 0.6 E 7 9 4 5 1015.8 - -
26/02:00am 19.2 20.7 18.0 93 0.7 E 7 9 4 5 1015.9 - -
26/01:30am 18.8 20.1 17.5 92 0.8 E 7 9 4 5 1015.9 - -
26/01:00am 19.1 20.5 17.8 92 0.8 E 7 9 4 5 1016.1 - -
26/12:30am 19.4 20.8 17.9 91 0.9 E 7 9 4 5 1016.0 - -
26/12:00am 19.7 21.2 18.0 90 1.0 SE 7 9 4 5 1016.2 1016.2 -
 
Date/Time
CST
Temp
°C
App
Temp
°C
Dew
Point
Rel
Hum
%
Delta-T
°C
Wind Press
QNH
hPa
Press
MSL
hPa
Rain
since 9 am
mm
Dir
 
Spd
km/h
Gust
km/h
Spd
kts
Gust
kts
25/11:30pm 20.4 22.3 18.9 91 0.9 SE 7 9 4 5 1015.9 - -
25/11:00pm 22.1 24.4 20.7 92 0.9 ENE 9 13 5 7 1016.1 - -
25/10:30pm 20.9 22.5 19.2 90 1.1 ENE 9 11 5 6 1016.2 - -
25/10:00pm 20.2 21.7 18.0 87 1.4 E 7 9 4 5 1016.1 - -
25/09:30pm 20.8 22.6 18.2 85 1.6 E 6 7 3 4 1016.1 - -
25/09:00pm 21.7 23.6 18.5 82 2.0 E 6 7 3 4 1016.0 1016.0 -
25/08:30pm 24.0 26.6 20.5 81 2.3 N 7 13 4 7 1015.7 - -
25/08:00pm 22.5 24.7 19.1 81 2.2 ENE 6 7 3 4 1015.2 - -
25/07:30pm 23.3 25.3 18.8 76 2.8 SE 6 9 3 5 1014.9 - -
25/07:00pm 24.9 27.1 19.3 71 3.6 ESE 6 7 3 4 1014.6 - -
25/06:30pm 26.2 28.3 19.3 65 4.4 E 7 11 4 6 1014.3 - -
25/06:00pm 27.4 29.0 19.2 61 5.3 ESE 9 15 5 8 1014.0 1014.0 -
25/05:30pm 28.3 29.9 19.2 57 5.9 SE 9 13 5 7 1013.7 - -
25/05:00pm 28.4 29.8 19.6 59 5.7 ESE 11 17 6 9 1013.4 - -
25/04:30pm 28.9 31.0 20.1 59 5.8 SSE 9 17 5 9 1013.3 - -
25/04:00pm 29.6 30.9 19.3 54 6.7 SSE 11 17 6 9 1013.3 - -

Other Formats:

Comma delimited format used in spreadsheet applications
http://www.bom.gov.au/fwo/IDD60801/IDD60801.94122.axf

JavaScript Object Notation format (JSON) in row-major order
http://www.bom.gov.au/fwo/IDD60801/IDD60801.94122.json